Time;durP1;ratioP1;P1;durP2;ratioP2;P2;SDS_P1;SDS_P2;PMS_P1;PMS_P2;Temp;Humidity;BMP_temperature;BMP_pressure;BME280_temperature;BME280_humidity;BME280_pressure;Samples;Min_cycle;Max_cycle;Signal;HPM_P1;HPM_P2
2023/03/23 00:01:21;;;;;;;6.07;1.95;;;;;;;17.71;51.96;100217.53;5049411;28;20988;-41
2023/03/23 00:03:49;;;;;;;5.00;1.77;;;;;;;17.71;51.99;100216.69;5052961;28;20117;-43
2023/03/23 00:06:17;;;;;;;6.43;2.25;;;;;;;17.71;51.88;100222.88;5053536;28;20053;-43
2023/03/23 00:08:45;;;;;;;6.07;2.55;;;;;;;17.72;51.98;100218.34;5050809;28;20068;-43
2023/03/23 00:11:19;;;;;;;5.72;2.53;;;;;;;17.71;51.82;100222.03;5048603;28;20064;-42
2023/03/23 00:13:46;;;;;;;3.53;2.15;;;;;;;17.72;51.76;100221.88;5051888;28;20045;-41
2023/03/23 00:16:19;;;;;;;4.78;1.52;;;;;;;17.72;51.60;100216.50;5050612;28;20061;-41
2023/03/23 00:18:52;;;;;;;4.63;1.98;;;;;;;17.71;52.12;100201.44;5053092;28;20048;-42
2023/03/23 00:21:25;;;;;;;4.82;2.40;;;;;;;17.72;51.83;100202.28;5059056;28;20476;-42
2023/03/23 00:23:51;;;;;;;3.75;1.80;;;;;;;17.72;51.75;100210.31;5053387;28;20118;-42
2023/03/23 00:26:18;;;;;;;4.05;2.20;;;;;;;17.72;51.68;100210.31;5058549;28;20045;-43
2023/03/23 00:28:46;;;;;;;4.15;1.85;;;;;;;17.71;51.77;100205.97;5057212;28;20049;-43
2023/03/23 00:31:13;;;;;;;3.60;1.75;;;;;;;17.71;51.69;100204.13;5056583;28;20476;-43
2023/03/23 00:33:40;;;;;;;3.47;1.67;;;;;;;17.71;51.83;100195.25;5055850;28;20060;-42
2023/03/23 00:36:11;;;;;;;3.75;2.08;;;;;;;17.70;51.68;100189.06;5060621;28;20067;-42
2023/03/23 00:38:37;;;;;;;3.90;2.03;;;;;;;17.71;52.02;100189.88;5052043;28;21362;-42
2023/03/23 00:41:04;;;;;;;3.97;1.35;;;;;;;17.70;52.13;100188.22;5052471;28;20420;-43
2023/03/23 00:43:31;;;;;;;3.25;1.60;;;;;;;17.69;51.86;100190.06;5047633;28;20429;-42
2023/03/23 00:46:00;;;;;;;5.68;1.80;;;;;;;17.70;51.90;100188.22;5051372;28;20040;-40
2023/03/23 00:48:27;;;;;;;4.05;1.63;;;;;;;17.68;51.74;100180.31;5053617;28;20391;-42
2023/03/23 00:50:53;;;;;;;3.00;1.70;;;;;;;17.68;51.76;100183.00;5051617;28;20072;-42
2023/03/23 00:53:19;;;;;;;7.00;2.33;;;;;;;17.68;51.80;100176.81;5045761;28;20453;-41
2023/03/23 00:55:46;;;;;;;3.95;1.75;;;;;;;17.68;51.39;100184.84;5052750;28;20053;-41
2023/03/23 00:58:13;;;;;;;3.42;1.80;;;;;;;17.69;51.73;100167.78;5051741;28;20040;-42
2023/03/23 01:00:39;;;;;;;4.82;1.92;;;;;;;17.68;51.97;100166.91;5050788;28;20115;-40
2023/03/23 01:03:06;;;;;;;2.45;1.40;;;;;;;17.70;51.42;100162.25;5054820;28;20053;-40
2023/03/23 01:05:36;;;;;;;3.20;1.30;;;;;;;17.69;51.39;100171.31;5053510;28;20052;-43
2023/03/23 01:08:02;;;;;;;4.60;1.80;;;;;;;17.70;51.56;100172.97;5054172;28;20064;-41
2023/03/23 01:10:32;;;;;;;4.88;1.85;;;;;;;17.70;51.26;100175.66;5051314;28;20049;-42
2023/03/23 01:13:01;;;;;;;3.80;1.58;;;;;;;17.70;51.39;100172.97;5047196;28;20044;-43
2023/03/23 01:15:27;;;;;;;3.85;1.58;;;;;;;17.70;51.61;100175.66;5048967;28;20056;-41
2023/03/23 01:17:53;;;;;;;3.55;1.77;;;;;;;17.70;51.66;100169.44;5049809;28;20463;-41
2023/03/23 01:20:18;;;;;;;3.40;1.55;;;;;;;17.71;51.66;100147.00;5047863;28;20052;-43
2023/03/23 01:22:44;;;;;;;3.42;1.60;;;;;;;17.68;51.41;100150.84;5042252;28;20040;-44
2023/03/23 01:25:11;;;;;;;4.80;1.75;;;;;;;17.69;51.44;100138.31;5050532;28;20125;-43
2023/03/23 01:27:37;;;;;;;3.25;1.55;;;;;;;17.68;51.74;100150.00;5052539;28;20464;-42
2023/03/23 01:30:05;;;;;;;3.72;1.80;;;;;;;17.68;51.65;100131.25;5049213;28;20052;-43
2023/03/23 01:32:31;;;;;;;2.45;1.35;;;;;;;17.68;51.29;100133.94;5047982;28;20091;-42
2023/03/23 01:34:57;;;;;;;2.90;1.73;;;;;;;17.67;51.30;100130.41;5050983;28;20091;-43
2023/03/23 01:37:26;;;;;;;2.78;1.55;;;;;;;17.66;51.21;100134.09;5052236;28;20076;-43
2023/03/23 01:39:55;;;;;;;3.97;1.27;;;;;;;17.66;51.53;100125.22;5051643;28;20051;-42
2023/03/23 01:42:29;;;;;;;3.80;1.60;;;;;;;17.64;51.61;100130.75;5047855;28;20140;-43
2023/03/23 01:44:54;;;;;;;;;;;;;;;17.64;51.73;100133.44;5049834;28;20057;-41
2023/03/23 01:47:23;;;;;;;2.83;1.30;;;;;;;17.67;51.20;100130.41;5046942;28;19935;-43
2023/03/23 01:49:50;;;;;;;3.15;1.50;;;;;;;17.66;51.58;100144.00;5047357;28;20044;-43
2023/03/23 01:52:24;;;;;;;2.83;1.40;;;;;;;17.65;51.56;100142.31;5050730;28;20683;-41
2023/03/23 01:54:55;;;;;;;3.17;1.30;;;;;;;17.66;51.27;100130.59;5052018;28;20044;-42
2023/03/23 01:57:24;;;;;;;2.63;1.20;;;;;;;17.66;51.29;100126.06;5049770;28;20060;-43
2023/03/23 01:59:51;;;;;;;2.97;1.70;;;;;;;17.65;51.33;100116.38;5049024;28;20052;-42
2023/03/23 02:02:20;;;;;;;2.75;1.60;;;;;;;17.64;51.13;100120.03;5050043;28;20093;-43
2023/03/23 02:04:45;;;;;;;2.25;1.20;;;;;;;17.66;51.69;100117.19;5051144;28;20056;-42
2023/03/23 02:07:13;;;;;;;4.32;1.70;;;;;;;17.64;51.19;100101.28;5049077;28;20045;-39
2023/03/23 02:09:39;;;;;;;2.10;1.27;;;;;;;17.66;51.36;100111.84;5047454;28;20143;-43
2023/03/23 02:12:05;;;;;;;3.00;1.30;;;;;;;17.65;50.96;100108.31;5052648;28;20045;-43
2023/03/23 02:14:31;;;;;;;2.28;1.17;;;;;;;17.64;51.45;100109.31;5054051;28;20053;-42
2023/03/23 02:17:29;;;;;;;1.70;1.10;;;;;;;17.64;51.56;100121.88;5053553;28;20119;-43
2023/03/23 02:20:13;;;;;;;3.70;1.42;;;;;;;17.65;51.46;100124.41;5046088;28;20045;-42
2023/03/23 02:22:47;;;;;;;1.58;1.20;;;;;;;17.65;51.43;100126.25;5052112;28;20045;-42
2023/03/23 02:25:18;;;;;;;2.25;1.27;;;;;;;17.63;51.25;100115.69;5049880;28;20056;-42
2023/03/23 02:28:12;;;;;;;4.43;1.45;;;;;;;17.64;51.25;100124.56;5046205;28;20044;-43
2023/03/23 02:31:02;;;;;;;2.63;1.35;;;;;;;17.64;51.41;100130.75;5049170;28;20366;-42
2023/03/23 02:33:46;;;;;;;3.38;1.45;;;;;;;17.63;51.20;100123.72;5050387;28;20041;-41
2023/03/23 02:36:29;;;;;;;2.97;1.27;;;;;;;17.63;51.36;100113.00;5049282;28;20049;-43
2023/03/23 02:39:17;;;;;;;4.63;2.15;;;;;;;17.63;51.64;100123.72;5044777;28;20132;-43
2023/03/23 02:41:50;;;;;;;3.58;1.42;;;;;;;17.63;51.38;100121.03;5045924;28;20052;-41
2023/03/23 02:44:16;;;;;;;2.67;1.10;;;;;;;17.64;51.36;100119.19;5045837;28;20156;-41
2023/03/23 02:46:44;;;;;;;3.10;1.20;;;;;;;17.64;50.93;100121.88;5049939;28;20049;-43
2023/03/23 02:49:12;;;;;;;1.25;1.10;;;;;;;17.63;51.33;100107.63;5053360;28;20057;-43
2023/03/23 02:51:39;;;;;;;2.30;1.17;;;;;;;17.63;51.39;100113.00;5051021;28;20079;-40
2023/03/23 02:54:06;;;;;;;3.03;1.27;;;;;;;17.63;51.14;100113.00;5053130;28;20053;-39
2023/03/23 02:56:33;;;;;;;3.75;1.20;;;;;;;17.63;51.07;100102.28;5055472;28;20049;-43
2023/03/23 02:58:59;;;;;;;3.67;1.30;;;;;;;17.62;51.58;100108.66;5053234;28;20408;-42
2023/03/23 03:01:33;;;;;;;3.08;1.50;;;;;;;17.62;51.39;100105.13;5053997;28;20040;-43
2023/03/23 03:04:03;;;;;;;3.92;1.50;;;;;;;17.62;51.43;100107.81;5053401;28;20515;-42
2023/03/23 03:06:54;;;;;;;1.75;1.10;;;;;;;17.61;51.48;100103.44;5055617;28;20048;-43
2023/03/23 03:09:50;;;;;;;5.25;1.65;;;;;;;17.61;51.52;100108.81;5054215;28;20439;-42
2023/03/23 03:12:44;;;;;;;3.00;1.10;;;;;;;17.62;51.58;100100.63;5050037;28;20045;-42
2023/03/23 03:15:24;;;;;;;2.72;1.20;;;;;;;17.64;51.25;100100.44;5043913;28;20355;-41
2023/03/23 03:18:01;;;;;;;3.45;1.33;;;;;;;17.62;51.36;100095.25;5055280;28;20059;-42
2023/03/23 03:20:29;;;;;;;2.17;1.20;;;;;;;17.63;51.21;100099.59;5051163;28;20045;-42
2023/03/23 03:22:57;;;;;;;4.10;1.23;;;;;;;17.62;51.18;100092.56;5057091;28;20075;-43
2023/03/23 03:25:24;;;;;;;3.45;1.00;;;;;;;17.62;51.08;100092.56;5054090;28;20140;-42
2023/03/23 03:27:52;;;;;;;4.57;1.20;;;;;;;17.63;51.21;100088.88;5049514;28;20115;-42
2023/03/23 03:30:24;;;;;;;2.00;1.05;;;;;;;17.63;51.37;100094.25;5053740;28;20060;-42
2023/03/23 03:32:53;;;;;;;4.03;1.20;;;;;;;17.63;51.35;100090.72;5050308;28;20066;-42
2023/03/23 03:35:21;;;;;;;3.55;1.33;;;;;;;17.61;50.92;100101.63;5047628;28;20147;-42
2023/03/23 03:37:47;;;;;;;4.40;1.50;;;;;;;17.62;50.74;100083.72;5050824;28;20045;-41
2023/03/23 03:40:15;;;;;;;2.25;1.20;;;;;;;17.59;51.38;100084.88;5050910;28;20060;-43
2023/03/23 03:42:43;;;;;;;2.20;1.10;;;;;;;17.62;51.46;100092.56;5047895;28;20213;-41
2023/03/23 03:45:13;;;;;;;1.00;0.80;;;;;;;17.60;51.41;100088.38;5050206;28;20057;-41
2023/03/23 03:47:38;;;;;;;2.47;1.13;;;;;;;17.59;51.39;100090.22;5049950;28;20101;-42
2023/03/23 03:50:05;;;;;;;1.50;1.13;;;;;;;17.61;51.31;100092.72;5052166;28;20045;-42
2023/03/23 03:52:31;;;;;;;3.70;1.40;;;;;;;17.60;51.38;100080.34;5046136;28;20051;-43
2023/03/23 03:54:57;;;;;;;2.75;1.08;;;;;;;17.60;51.23;100088.38;5055588;28;20115;-42
2023/03/23 03:57:23;;;;;;;1.20;0.95;;;;;;;17.59;51.75;100100.13;5061122;28;20132;-44
2023/03/23 03:59:49;;;;;;;2.50;1.13;;;;;;;17.58;51.50;100093.91;5048079;28;20120;-43
2023/03/23 04:02:19;;;;;;;1.98;1.20;;;;;;;17.58;51.26;100083.19;5051121;28;20508;-43
2023/03/23 04:04:46;;;;;;;2.95;0.93;;;;;;;17.57;51.45;100089.56;5050996;28;20094;-42
2023/03/23 04:07:13;;;;;;;3.55;1.25;;;;;;;17.58;51.33;100098.44;5048403;28;20049;-41
2023/03/23 04:09:39;;;;;;;3.92;1.35;;;;;;;17.57;51.50;100102.09;5048174;28;20049;-41
2023/03/23 04:12:05;;;;;;;3.05;1.00;;;;;;;17.56;51.76;100095.09;5049465;28;20396;-39
2023/03/23 04:14:31;;;;;;;3.63;1.00;;;;;;;17.56;51.67;100095.09;5053625;28;20056;-41
2023/03/23 04:16:56;;;;;;;3.22;1.17;;;;;;;17.55;51.65;100086.22;5050740;28;20040;-42
2023/03/23 04:19:23;;;;;;;2.78;1.55;;;;;;;17.56;51.38;100100.44;5056764;28;20056;-42
2023/03/23 04:21:49;;;;;;;3.30;1.38;;;;;;;17.55;51.59;100110.31;5048508;28;20383;-43
2023/03/23 04:24:15;;;;;;;2.88;1.20;;;;;;;17.56;51.67;100108.47;5053173;28;20045;-42
2023/03/23 04:26:41;;;;;;;2.20;1.10;;;;;;;17.55;51.57;100112.16;5052265;28;20072;-42
2023/03/23 04:29:08;;;;;;;2.72;1.10;;;;;;;17.55;51.54;100109.50;5047838;28;20041;-41
2023/03/23 04:31:34;;;;;;;4.38;1.30;;;;;;;17.55;51.92;100114.84;5048939;28;20045;-43
2023/03/23 04:34:01;;;;;;;1.50;0.80;;;;;;;17.54;51.61;100114.03;5051810;28;20049;-42
2023/03/23 04:36:28;;;;;;;2.38;1.40;;;;;;;17.54;51.61;100114.03;5052304;28;20041;-42
2023/03/23 04:38:56;;;;;;;2.30;0.90;;;;;;;17.55;51.41;100113.00;5052558;28;20052;-42
2023/03/23 04:41:24;;;;;;;2.38;1.00;;;;;;;17.55;51.57;100126.41;5050860;28;20120;-43
2023/03/23 04:43:52;;;;;;;2.33;1.05;;;;;;;17.55;51.75;100131.75;5049796;28;20049;-41
2023/03/23 04:46:19;;;;;;;3.70;1.10;;;;;;;17.55;51.44;100131.75;5049354;28;20057;-42
2023/03/23 04:48:45;;;;;;;3.55;1.20;;;;;;;17.55;51.55;100137.13;5052149;28;20049;-43
2023/03/23 04:51:12;;;;;;;3.42;1.30;;;;;;;17.55;51.43;100136.28;5052744;28;20049;-41
2023/03/23 04:53:37;;;;;;;2.30;1.20;;;;;;;17.55;51.32;100152.38;5052445;28;20048;-42
2023/03/23 04:56:03;;;;;;;3.45;1.00;;;;;;;17.54;51.35;100154.22;5049979;28;20036;-40
2023/03/23 04:58:29;;;;;;;3.47;0.98;;;;;;;17.53;51.13;100160.59;5049275;28;20448;-41
2023/03/23 05:00:55;;;;;;;1.50;0.85;;;;;;;17.52;51.35;100154.34;5049064;28;20048;-42
2023/03/23 05:03:21;;;;;;;3.22;0.90;;;;;;;17.52;52.11;100149.00;5048910;28;20100;-43
2023/03/23 05:05:51;;;;;;;7.18;1.33;;;;;;;17.52;51.44;100150.84;5043633;28;20084;-41
2023/03/23 05:08:21;;;;;;;3.03;1.10;;;;;;;17.49;51.34;100152.03;5051948;28;20119;-42
2023/03/23 05:10:57;;;;;;;5.97;1.17;;;;;;;17.50;51.91;100159.06;5047158;28;20049;-43
2023/03/23 05:13:23;;;;;;;2.58;1.15;;;;;;;17.50;52.00;100160.91;5048454;28;20152;-43
2023/03/23 05:15:49;;;;;;;3.28;1.15;;;;;;;17.49;51.51;100169.97;5047002;28;20456;-42
2023/03/23 05:18:15;;;;;;;2.75;1.10;;;;;;;17.48;51.78;100162.91;5046636;28;20045;-42
2023/03/23 05:20:41;;;;;;;3.33;1.25;;;;;;;17.47;52.01;100169.28;5053640;28;20099;-43
2023/03/23 05:23:08;;;;;;;3.72;1.40;;;;;;;17.45;51.99;100174.81;5053584;28;20044;-42
2023/03/23 05:25:39;;;;;;;4.35;1.45;;;;;;;17.44;51.69;100178.47;5060816;28;20052;-43
2023/03/23 05:28:04;;;;;;;4.57;2.00;;;;;;;17.44;51.68;100174.97;5053828;28;20045;-42
2023/03/23 05:30:30;;;;;;;5.28;2.20;;;;;;;17.43;52.42;100184.84;5057291;28;20052;-43
2023/03/23 05:32:55;;;;;;;4.80;2.20;;;;;;;17.43;52.04;100184.00;5056099;28;20041;-42
2023/03/23 05:35:21;;;;;;;5.47;2.58;;;;;;;17.42;52.28;100185.00;5053081;28;20041;-43
2023/03/23 05:37:46;;;;;;;8.25;3.08;;;;;;;17.42;51.96;100188.53;5054014;28;20463;-42
2023/03/23 05:40:12;;;;;;;6.30;3.10;;;;;;;17.41;52.04;100188.69;5053538;28;20049;-42
2023/03/23 05:42:42;;;;;;;5.57;3.15;;;;;;;17.41;51.90;100192.22;5054839;28;20102;-41
2023/03/23 05:45:11;;;;;;;6.85;3.03;;;;;;;17.41;52.39;100194.06;5052375;28;20059;-42
2023/03/23 05:47:38;;;;;;;8.70;4.15;;;;;;;17.41;52.18;100196.75;5053077;28;20048;-42
2023/03/23 05:50:06;;;;;;;8.73;3.75;;;;;;;17.42;52.61;100206.44;5054602;28;20041;-42
2023/03/23 05:52:32;;;;;;;8.40;4.15;;;;;;;17.42;52.44;100203.75;5056069;28;20051;-41
2023/03/23 05:54:58;;;;;;;7.80;4.47;;;;;;;17.41;52.43;100194.91;5055461;28;20090;-42
2023/03/23 05:57:24;;;;;;;9.70;4.47;;;;;;;17.42;52.20;100201.09;5054857;28;20049;-42
2023/03/23 05:59:49;;;;;;;10.27;4.35;;;;;;;17.42;52.31;100195.72;5055022;28;20094;-43
2023/03/23 06:02:15;;;;;;;9.77;4.47;;;;;;;17.42;52.26;100204.59;5051787;28;20052;-42
2023/03/23 06:04:41;;;;;;;7.28;4.13;;;;;;;17.41;52.27;100200.25;5053346;28;20053;-43
2023/03/23 06:07:07;;;;;;;7.60;4.43;;;;;;;17.41;52.27;100210.97;5058374;28;20051;-42
2023/03/23 06:09:33;;;;;;;7.22;3.88;;;;;;;17.42;51.83;100217.16;5056193;28;20037;-41
2023/03/23 06:11:58;;;;;;;8.23;4.72;;;;;;;17.42;52.08;100209.13;5055214;28;20399;-42
2023/03/23 06:14:24;;;;;;;12.52;4.97;;;;;;;17.43;52.26;100221.50;5059517;28;20852;-42
2023/03/23 06:16:50;;;;;;;8.32;5.03;;;;;;;17.42;52.16;100225.19;5052675;28;20045;-43
2023/03/23 06:19:16;;;;;;;9.80;5.07;;;;;;;17.43;52.10;100226.88;5055779;28;20044;-43
2023/03/23 06:21:43;;;;;;;9.70;4.47;;;;;;;17.42;51.97;100226.03;5054035;28;20429;-43
2023/03/23 06:24:10;;;;;;;8.90;4.47;;;;;;;17.43;52.06;100225.03;5052987;28;20052;-42
2023/03/23 06:26:38;;;;;;;8.60;4.30;;;;;;;17.42;52.10;100234.06;5053107;28;20059;-41
2023/03/23 06:29:10;;;;;;;8.05;4.65;;;;;;;17.43;52.04;100226.88;5048945;28;20454;-42
2023/03/23 06:31:49;;;;;;;9.83;4.90;;;;;;;17.42;52.44;100239.44;5048386;28;20498;-43
2023/03/23 06:34:14;;;;;;;9.07;4.80;;;;;;;17.44;52.06;100247.28;5054049;28;20056;-42
2023/03/23 06:36:43;;;;;;;7.45;4.43;;;;;;;17.45;52.52;100243.63;5052443;28;20045;-43
2023/03/23 06:39:09;;;;;;;7.75;4.50;;;;;;;17.46;51.96;100256.00;5057406;28;20045;-42
2023/03/23 06:41:35;;;;;;;9.32;4.43;;;;;;;17.46;51.63;100259.53;5054760;28;20493;-42
2023/03/23 06:44:01;;;;;;;9.07;5.20;;;;;;;17.47;51.99;100247.81;5053982;28;20052;-42
2023/03/23 06:46:27;;;;;;;9.00;4.43;;;;;;;17.46;52.13;100247.97;5053992;28;20509;-42
2023/03/23 06:48:54;;;;;;;7.45;4.18;;;;;;;17.48;52.08;100254.00;5058011;28;20428;-43
2023/03/23 06:51:19;;;;;;;7.30;4.05;;;;;;;17.48;52.33;100254.00;5057354;28;20041;-43
2023/03/23 06:53:45;;;;;;;8.40;4.13;;;;;;;17.48;51.55;100254.81;5055988;28;20076;-43
2023/03/23 06:56:12;;;;;;;7.95;4.40;;;;;;;17.49;51.64;100261.88;5057526;28;20044;-42
2023/03/23 06:58:39;;;;;;;7.15;3.70;;;;;;;17.49;51.93;100261.88;5054808;28;20355;-42
2023/03/23 07:01:04;;;;;;;8.75;4.57;;;;;;;17.50;51.97;100258.19;5048940;28;20041;-42
2023/03/23 07:03:31;;;;;;;9.18;4.80;;;;;;;17.51;51.47;100254.50;5054266;28;20124;-43
2023/03/23 07:05:57;;;;;;;10.00;5.13;;;;;;;17.53;51.89;100267.75;5049306;28;20094;-42
2023/03/23 07:08:22;;;;;;;10.02;4.47;;;;;;;17.55;51.80;100264.91;5056678;28;20124;-42
2023/03/23 07:10:52;;;;;;;8.70;4.40;;;;;;;17.56;51.91;100262.03;5046424;28;20317;-44
2023/03/23 07:13:17;;;;;;;11.15;4.28;;;;;;;17.55;51.64;100265.75;5049995;28;20413;-43
2023/03/23 07:15:43;;;;;;;7.32;4.10;;;;;;;17.57;51.72;100253.03;5049683;28;20057;-44
2023/03/23 07:18:09;;;;;;;6.50;4.10;;;;;;;17.60;51.80;100258.03;5051762;28;20074;-43
2023/03/23 07:20:35;;;;;;;7.93;4.63;;;;;;;17.63;51.43;100264.91;5052507;28;20057;-41
2023/03/23 07:23:01;;;;;;;8.50;3.83;;;;;;;17.63;51.51;100262.22;5054962;28;20045;-43
2023/03/23 07:25:27;;;;;;;6.80;3.83;;;;;;;17.64;51.49;100259.38;5053559;28;20463;-43
2023/03/23 07:27:53;;;;;;;9.80;4.25;;;;;;;17.66;51.41;100275.31;5057834;28;20040;-43
2023/03/23 07:30:18;;;;;;;8.32;4.05;;;;;;;17.66;51.52;100272.63;5057024;28;20052;-41
2023/03/23 07:32:44;;;;;;;7.20;3.72;;;;;;;17.66;51.25;100280.69;5060061;28;20373;-44
2023/03/23 07:35:10;;;;;;;7.88;3.85;;;;;;;17.66;51.52;100286.88;5054454;28;20433;-42
2023/03/23 07:37:36;;;;;;;6.05;3.65;;;;;;;17.66;51.34;100288.72;5060378;28;20074;-42
2023/03/23 07:40:14;;;;;;;5.97;3.40;;;;;;;17.65;51.10;100279.84;5054928;28;20055;-42
2023/03/23 07:42:44;;;;;;;7.28;3.83;;;;;;;17.67;51.49;100290.38;5055079;28;20435;-42
2023/03/23 07:45:11;;;;;;;7.90;4.30;;;;;;;17.67;51.10;100293.06;5052099;28;20715;-43
2023/03/23 07:47:37;;;;;;;7.22;3.83;;;;;;;17.68;51.42;100284.84;5052411;28;20443;-42
2023/03/23 07:50:04;;;;;;;8.90;3.50;;;;;;;17.68;51.44;100282.16;5052954;28;20429;-41
2023/03/23 07:52:30;;;;;;;8.77;3.78;;;;;;;17.68;51.28;100279.50;5060004;28;20045;-43
2023/03/23 07:54:56;;;;;;;10.48;3.72;;;;;;;17.68;50.98;100278.66;5050089;28;20045;-43
2023/03/23 07:57:22;;;;;;;8.00;4.15;;;;;;;17.70;51.57;100282.84;5057930;28;20064;-43
2023/03/23 07:59:48;;;;;;;7.53;3.65;;;;;;;17.71;51.44;100291.72;5051963;28;20045;-41
2023/03/23 08:02:13;;;;;;;9.07;4.00;;;;;;;17.72;51.63;100296.09;5054040;28;20344;-42
2023/03/23 08:04:39;;;;;;;8.20;3.65;;;;;;;17.73;51.62;100295.94;5053770;28;20065;-41
2023/03/23 08:07:04;;;;;;;9.07;3.92;;;;;;;17.74;51.33;100302.13;5056854;28;20140;-43
2023/03/23 08:09:30;;;;;;;5.70;3.05;;;;;;;17.75;51.32;100301.97;5053130;28;20041;-41
2023/03/23 08:11:56;;;;;;;8.25;3.42;;;;;;;17.76;51.37;100300.97;5048819;28;20049;-41
2023/03/23 08:14:22;;;;;;;7.63;3.58;;;;;;;17.76;51.24;100306.34;5052097;28;20603;-41
2023/03/23 08:16:48;;;;;;;8.98;3.33;;;;;;;17.78;51.28;100308.03;5051973;28;20056;-42
2023/03/23 08:19:14;;;;;;;7.15;3.60;;;;;;;17.78;51.35;100302.66;5032761;28;20052;-43
2023/03/23 08:21:40;;;;;;;8.00;3.35;;;;;;;17.78;51.14;100308.88;5049304;28;20686;-43
2023/03/23 08:24:06;;;;;;;5.47;3.15;;;;;;;17.79;51.17;100310.53;5053673;28;20144;-43
2023/03/23 08:26:31;;;;;;;6.00;3.10;;;;;;;17.80;51.41;100303.31;5052477;28;20056;-41
2023/03/23 08:28:57;;;;;;;6.38;3.17;;;;;;;17.81;51.35;100311.22;5056012;28;20478;-43
2023/03/23 08:31:23;;;;;;;6.30;2.92;;;;;;;17.82;51.29;100310.22;5051919;28;20134;-43
2023/03/23 08:33:49;;;;;;;7.93;3.13;;;;;;;17.83;51.37;100313.72;5050880;28;20458;-43
2023/03/23 08:36:14;;;;;;;6.40;2.85;;;;;;;17.83;51.03;100316.41;5050021;28;20139;-43
2023/03/23 08:38:40;;;;;;;5.85;3.22;;;;;;;17.85;51.25;100322.44;5054444;28;20429;-42
2023/03/23 08:41:07;;;;;;;7.95;2.83;;;;;;;17.85;51.65;100328.66;5053882;28;20044;-43
2023/03/23 08:43:32;;;;;;;6.45;3.08;;;;;;;17.88;51.47;100327.47;5052548;28;20052;-42
2023/03/23 08:45:58;;;;;;;7.65;3.08;;;;;;;17.90;51.59;100323.63;5056571;28;20044;-41
2023/03/23 08:48:24;;;;;;;8.43;2.95;;;;;;;17.93;51.52;100322.44;5057133;28;20056;-42
2023/03/23 08:50:51;;;;;;;8.70;3.53;;;;;;;17.96;51.08;100339.03;5054484;28;20488;-43
2023/03/23 08:53:20;;;;;;;6.80;2.88;;;;;;;17.99;51.25;100327.16;5049856;28;20091;-43
2023/03/23 08:55:46;;;;;;;6.90;2.60;;;;;;;18.03;51.49;100338.38;5054988;28;20033;-42
2023/03/23 08:58:13;;;;;;;5.78;3.00;;;;;;;18.06;51.00;100328.19;5050671;28;20119;-43
2023/03/23 09:00:38;;;;;;;6.20;2.60;;;;;;;18.10;51.08;100334.88;5054891;28;20053;-44
2023/03/23 09:03:04;;;;;;;4.15;2.20;;;;;;;18.13;50.86;100337.25;5048093;28;20405;-42
2023/03/23 09:05:30;;;;;;;6.03;2.90;;;;;;;18.16;50.99;100336.03;5058841;28;20056;-41
2023/03/23 09:08:00;;;;;;;5.97;2.75;;;;;;;18.18;50.72;100342.94;5046523;28;20041;-43
2023/03/23 09:10:27;;;;;;;6.00;2.92;;;;;;;18.22;51.25;100340.75;5052489;28;20055;-42
2023/03/23 09:12:54;;;;;;;5.10;2.35;;;;;;;18.25;50.84;100349.31;5045451;28;20056;-41
2023/03/23 09:15:20;;;;;;;5.82;2.90;;;;;;;18.29;51.18;100340.91;5051759;28;20051;-43
2023/03/23 09:17:48;;;;;;;6.03;2.92;;;;;;;18.33;50.79;100340.44;5046548;28;20049;-43
2023/03/23 09:20:15;;;;;;;5.88;2.58;;;;;;;18.36;50.58;100339.25;5057203;28;20048;-42
2023/03/23 09:22:43;;;;;;;5.88;2.58;;;;;;;18.40;50.59;100329.84;5050593;28;20128;-42
2023/03/23 09:25:12;;;;;;;5.32;2.42;;;;;;;18.44;50.67;100339.22;5054055;28;20126;-42
2023/03/23 09:27:41;;;;;;;6.55;3.03;;;;;;;18.48;50.73;100337.88;5050814;28;20052;-43
2023/03/23 09:30:10;;;;;;;8.38;2.70;;;;;;;18.52;50.75;100341.06;5048711;28;20044;-43
2023/03/23 09:32:36;;;;;;;4.18;2.40;;;;;;;18.54;50.24;100342.59;5046927;28;20056;-43
2023/03/23 09:35:03;;;;;;;5.90;2.70;;;;;;;18.57;50.77;100342.22;5055055;28;20080;-43
2023/03/23 09:37:29;;;;;;;6.25;2.97;;;;;;;18.60;50.54;100349.13;5051745;28;20090;-43
2023/03/23 09:39:54;;;;;;;6.32;3.03;;;;;;;18.64;50.63;100351.28;5053328;28;20084;-43
2023/03/23 09:43:11;;;;;;;9.80;3.13;;;;;;;18.68;50.75;100351.78;5052218;28;20045;-43
2023/03/23 09:45:46;;;;;;;6.32;2.97;;;;;;;18.73;50.87;100357.50;5008723;28;20394;-44
2023/03/23 09:48:37;;;;;;;11.00;3.58;;;;;;;18.74;50.53;100364.59;5051319;28;20052;-43
2023/03/23 09:51:25;;;;;;;8.25;2.85;;;;;;;18.76;50.58;100356.34;5049541;28;20051;-43
2023/03/23 09:53:56;;;;;;;7.25;3.22;;;;;;;18.78;50.13;100365.09;5056270;28;20042;-42
2023/03/23 09:56:23;;;;;;;8.82;3.60;;;;;;;18.79;50.70;100366.75;5054340;28;20055;-43
2023/03/23 09:58:55;;;;;;;8.85;3.47;;;;;;;18.79;50.37;100369.44;5058943;28;20052;-42
2023/03/23 10:01:42;;;;;;;9.13;3.33;;;;;;;18.79;50.22;100378.31;5057403;28;20052;-43
2023/03/23 10:04:31;;;;;;;10.38;3.25;;;;;;;18.80;50.01;100376.47;5050148;28;20387;-43
2023/03/23 10:07:01;;;;;;;8.98;3.83;;;;;;;18.83;49.72;100387.72;5050459;28;20037;-43
2023/03/23 10:09:28;;;;;;;7.40;3.05;;;;;;;18.86;50.37;100383.88;5051141;28;20053;-43
2023/03/23 10:11:59;;;;;;;5.57;2.50;;;;;;;18.88;50.25;100397.94;5055013;28;20041;-42
2023/03/23 10:14:44;;;;;;;6.45;2.42;;;;;;;18.90;49.68;100396.78;5049300;28;20102;-43
2023/03/23 10:17:29;;;;;;;7.97;2.80;;;;;;;18.96;49.87;100392.56;5050165;28;20093;-43
2023/03/23 10:20:11;;;;;;;7.18;2.65;;;;;;;18.99;50.14;100398.44;5053797;28;20629;-43
2023/03/23 10:23:01;;;;;;;6.32;2.72;;;;;;;19.05;50.18;100394.22;5054479;28;20097;-43
2023/03/23 10:25:31;;;;;;;6.63;3.60;;;;;;;19.09;50.05;100398.22;5045523;28;20064;-43
2023/03/23 10:28:16;;;;;;;6.25;2.65;;;;;;;19.11;49.44;100404.28;5054842;28;20076;-42
2023/03/23 10:30:52;;;;;;;10.38;3.17;;;;;;;19.15;49.45;100394.88;5051482;28;20043;-44
2023/03/23 10:33:29;;;;;;;7.93;3.35;;;;;;;19.20;49.62;100403.25;5052250;28;20120;-43
2023/03/23 10:36:17;;;;;;;10.55;3.15;;;;;;;19.23;49.96;100410.97;5055736;28;20032;-44
2023/03/23 10:39:07;;;;;;;9.77;2.85;;;;;;;19.28;49.42;100404.25;5051565;28;20049;-44
2023/03/23 10:41:33;;;;;;;7.10;3.00;;;;;;;19.32;50.03;100394.81;5054467;28;20650;-43
2023/03/23 10:43:59;;;;;;;8.90;2.75;;;;;;;19.37;49.57;100400.50;5053496;28;20063;-44
2023/03/23 10:46:36;;;;;;;10.40;2.85;;;;;;;19.39;49.80;100396.66;5053983;28;20048;-44
2023/03/23 10:49:11;;;;;;;7.50;2.40;;;;;;;19.42;49.30;100388.25;5034078;28;20448;-43
2023/03/23 10:51:44;;;;;;;5.63;2.63;;;;;;;19.45;49.72;100395.09;5054160;28;20041;-44
2023/03/23 10:54:09;;;;;;;5.32;2.70;;;;;;;19.45;49.10;100395.09;5052753;28;20088;-44
2023/03/23 10:56:41;;;;;;;8.52;3.13;;;;;;;19.45;48.93;100412.06;5050410;28;20375;-44
2023/03/23 10:59:22;;;;;;;9.00;2.65;;;;;;;19.46;48.96;100402.19;5055316;28;20294;-44
2023/03/23 11:01:51;;;;;;;4.65;2.47;;;;;;;19.49;49.15;100415.25;5056045;28;20049;-43
2023/03/23 11:04:19;;;;;;;7.32;3.13;;;;;;;19.48;49.63;100417.09;5051853;28;20460;-44
2023/03/23 11:07:00;;;;;;;8.57;3.00;;;;;;;19.46;48.85;100412.94;5061941;28;20387;-43
2023/03/23 11:09:38;;;;;;;6.75;2.35;;;;;;;19.48;48.95;100413.56;5057941;28;20050;-44
2023/03/23 11:12:04;;;;;;;10.48;3.05;;;;;;;19.52;48.85;100406.84;5053074;28;20057;-44
2023/03/23 11:14:32;;;;;;;8.30;3.00;;;;;;;19.54;49.23;100402.16;5060767;28;20127;-43
2023/03/23 11:17:00;;;;;;;6.55;3.17;;;;;;;19.56;49.27;100394.72;5056619;28;20044;-43
2023/03/23 11:19:28;;;;;;;7.97;3.00;;;;;;;19.59;48.91;100402.44;5055100;28;20160;-44
2023/03/23 11:22:06;;;;;;;6.10;2.42;;;;;;;19.60;48.98;100393.38;5055227;28;20052;-44
2023/03/23 11:24:36;;;;;;;6.22;2.90;;;;;;;19.60;49.16;100400.59;5056424;28;20049;-44
2023/03/23 11:27:06;;;;;;;6.88;2.88;;;;;;;19.61;48.67;100402.25;5054054;28;20054;-44
2023/03/23 11:29:33;;;;;;;9.00;2.75;;;;;;;19.62;48.49;100396.75;5054900;28;20040;-43
2023/03/23 11:31:59;;;;;;;8.77;3.20;;;;;;;19.65;49.15;100399.06;5055336;28;20095;-43
2023/03/23 11:34:35;;;;;;;8.68;2.78;;;;;;;19.65;49.17;100399.06;5059184;28;20123;-44